Time;durP1;ratioP1;P1;durP2;ratioP2;P2;SDS_P1;SDS_P2;PMS_P1;PMS_P2;Temp;Humidity;BMP_temperature;BMP_pressure;BME280_temperature;BME280_humidity;BME280_pressure;Samples;Min_cycle;Max_cycle;Signal;HPM_P1;HPM_P2
2022/05/15 00:02:41;;;;;;;8.15;4.53;;;;;;;;;;4899115;29;20036;-68
2022/05/15 00:05:08;;;;;;;8.32;3.70;;;;;;;;;;4899066;29;20025;-68
2022/05/15 00:07:34;;;;;;;5.93;4.22;;;;;;;;;;4899136;29;20047;-68
2022/05/15 00:10:01;;;;;;;5.05;4.05;;;;;;;;;;4913730;29;20039;-68
2022/05/15 00:12:27;;;;;;;6.68;4.68;;;;;;;;;;4898790;29;20024;-68
2022/05/15 00:14:53;;;;;;;6.97;4.47;;;;;;;;;;4898465;29;20040;-69
2022/05/15 00:17:20;;;;;;;9.73;4.32;;;;;;;;;;4899096;29;20023;-68
2022/05/15 00:19:46;;;;;;;6.65;4.47;;;;;;;;;;4898923;29;20040;-68
2022/05/15 00:22:14;;;;;;;6.30;4.40;;;;;;;;;;4899196;29;20047;-68
2022/05/15 00:24:40;;;;;;;7.22;4.32;;;;;;;;;;4898866;29;20075;-68
2022/05/15 00:27:06;;;;;;;10.60;4.95;;;;;;;;;;4898564;29;20016;-68
2022/05/15 00:29:33;;;;;;;6.32;4.25;;;;;;;;;;4928462;29;20451;-68
2022/05/15 00:31:59;;;;;;;6.47;4.30;;;;;;;;;;4898846;29;20027;-69
2022/05/15 00:34:25;;;;;;;4.80;4.30;;;;;;;;;;4898858;29;20390;-68
2022/05/15 00:36:52;;;;;;;10.88;4.50;;;;;;;;;;4898895;29;20024;-68
2022/05/15 00:39:18;;;;;;;11.50;4.13;;;;;;;;;;4897279;29;20035;-68
2022/05/15 00:41:45;;;;;;;5.18;4.40;;;;;;;;;;4898576;29;20033;-68
2022/05/15 00:44:11;;;;;;;5.50;4.50;;;;;;;;;;4898029;29;20040;-68
2022/05/15 00:46:39;;;;;;;6.32;4.68;;;;;;;;;;4913141;29;20105;-68
2022/05/15 00:49:08;;;;;;;8.13;4.97;;;;;;;;;;4898616;29;20032;-68
2022/05/15 00:51:34;;;;;;;11.68;4.72;;;;;;;;;;4898081;29;20026;-68
2022/05/15 00:54:09;;;;;;;7.38;5.00;;;;;;;;;;4898143;29;20024;-68
2022/05/15 00:56:37;;;;;;;7.90;5.10;;;;;;;;;;4928200;29;20041;-68
2022/05/15 00:59:08;;;;;;;8.20;4.75;;;;;;;;;;4897567;29;20054;-68
2022/05/15 01:01:34;;;;;;;9.23;5.07;;;;;;;;;;4897959;29;20035;-68
2022/05/15 01:04:01;;;;;;;9.18;5.13;;;;;;;;;;4898284;29;20497;-68
2022/05/15 01:06:27;;;;;;;9.43;4.50;;;;;;;;;;4897808;29;20032;-68
2022/05/15 01:08:53;;;;;;;8.63;5.07;;;;;;;;;;4897747;29;20034;-68
2022/05/15 01:11:20;;;;;;;8.30;4.90;;;;;;;;;;4898078;29;21000;-68
2022/05/15 01:13:48;;;;;;;6.70;5.20;;;;;;;;;;4897545;29;20417;-68
2022/05/15 01:16:17;;;;;;;7.47;5.10;;;;;;;;;;4898115;29;20036;-68
2022/05/15 01:18:44;;;;;;;7.32;4.80;;;;;;;;;;4897779;29;20025;-68
2022/05/15 01:21:19;;;;;;;10.55;4.57;;;;;;;;;;4897529;29;20048;-68
2022/05/15 01:23:46;;;;;;;7.30;4.90;;;;;;;;;;4897422;29;20033;-68
2022/05/15 01:26:13;;;;;;;9.07;5.60;;;;;;;;;;4897353;29;20035;-67
2022/05/15 01:28:39;;;;;;;13.55;5.18;;;;;;;;;;4898011;29;20037;-68
2022/05/15 01:31:05;;;;;;;6.82;4.63;;;;;;;;;;4898284;29;20029;-68
2022/05/15 01:33:32;;;;;;;9.50;5.53;;;;;;;;;;4897284;29;20517;-68
2022/05/15 01:35:58;;;;;;;8.30;5.13;;;;;;;;;;4897325;29;20041;-68
2022/05/15 01:38:24;;;;;;;6.78;5.07;;;;;;;;;;4897394;29;20025;-68
2022/05/15 01:40:51;;;;;;;8.07;4.80;;;;;;;;;;4897001;29;20408;-68
2022/05/15 01:43:18;;;;;;;6.90;5.55;;;;;;;;;;4897883;29;20367;-68
2022/05/15 01:45:44;;;;;;;5.95;5.07;;;;;;;;;;4897052;29;20470;-68
2022/05/15 01:48:10;;;;;;;8.52;4.88;;;;;;;;;;4897085;29;20024;-68
2022/05/15 01:50:37;;;;;;;8.05;5.55;;;;;;;;;;4896998;29;20034;-68
2022/05/15 01:53:03;;;;;;;8.35;5.07;;;;;;;;;;4897377;29;20031;-68
2022/05/15 01:55:30;;;;;;;7.72;5.05;;;;;;;;;;4896989;29;20524;-68
2022/05/15 01:57:56;;;;;;;6.85;4.82;;;;;;;;;;4897364;29;20493;-68
2022/05/15 02:00:23;;;;;;;6.78;4.90;;;;;;;;;;4896887;29;20038;-68
2022/05/15 02:02:51;;;;;;;8.07;4.53;;;;;;;;;;4896870;29;20037;-68
2022/05/15 02:05:19;;;;;;;8.80;5.07;;;;;;;;;;4896966;29;20029;-68
2022/05/15 02:07:47;;;;;;;9.07;5.18;;;;;;;;;;4897360;29;20029;-68
2022/05/15 02:10:15;;;;;;;9.10;5.13;;;;;;;;;;4897395;29;20033;-68
2022/05/15 02:12:41;;;;;;;10.15;4.82;;;;;;;;;;4896277;29;20489;-68
2022/05/15 02:15:08;;;;;;;8.18;5.47;;;;;;;;;;4896517;29;20514;-68
2022/05/15 02:17:35;;;;;;;6.90;5.70;;;;;;;;;;4896730;29;20554;-68
2022/05/15 02:20:01;;;;;;;7.80;5.38;;;;;;;;;;4897135;29;20100;-68
2022/05/15 02:22:28;;;;;;;8.88;5.43;;;;;;;;;;4911343;29;20071;-68
2022/05/15 02:24:54;;;;;;;8.38;5.18;;;;;;;;;;4896903;29;20033;-68
2022/05/15 02:27:20;;;;;;;11.65;5.93;;;;;;;;;;4897060;29;20013;-68
2022/05/15 02:29:47;;;;;;;7.63;5.25;;;;;;;;;;4896843;29;20142;-68
2022/05/15 02:32:13;;;;;;;10.50;5.03;;;;;;;;;;4896846;29;20398;-68
2022/05/15 02:34:39;;;;;;;7.38;5.15;;;;;;;;;;4896775;29;20048;-68
2022/05/15 02:37:06;;;;;;;8.18;5.70;;;;;;;;;;4927610;29;20058;-68
2022/05/15 02:39:32;;;;;;;8.32;4.82;;;;;;;;;;4896171;29;20021;-68
2022/05/15 02:42:01;;;;;;;7.53;5.03;;;;;;;;;;4896577;29;20032;-68
2022/05/15 02:44:28;;;;;;;8.68;4.97;;;;;;;;;;4896678;29;20031;-68
2022/05/15 02:46:55;;;;;;;6.50;4.80;;;;;;;;;;4896897;29;20033;-68
2022/05/15 02:52:07;;;;;;;8.82;5.10;;;;;;;;;;4897058;29;20029;-68
2022/05/15 02:54:34;;;;;;;10.52;5.22;;;;;;;;;;4895945;29;20036;-68
2022/05/15 02:57:00;;;;;;;6.32;5.20;;;;;;;;;;4896368;29;20017;-68
2022/05/15 02:59:26;;;;;;;10.68;5.72;;;;;;;;;;4896497;29;20031;-68
2022/05/15 03:01:52;;;;;;;8.45;5.18;;;;;;;;;;4896838;29;20033;-68
2022/05/15 03:04:19;;;;;;;7.15;4.65;;;;;;;;;;4896883;29;20083;-68
2022/05/15 03:06:45;;;;;;;8.55;4.82;;;;;;;;;;4896642;29;20035;-68
2022/05/15 03:09:11;;;;;;;11.18;5.30;;;;;;;;;;4895831;29;20035;-68
2022/05/15 03:11:38;;;;;;;8.35;5.05;;;;;;;;;;4896300;29;20028;-68
2022/05/15 03:14:04;;;;;;;8.05;5.35;;;;;;;;;;4896429;29;20483;-68
2022/05/15 03:16:31;;;;;;;12.20;5.00;;;;;;;;;;4896407;29;20072;-68
2022/05/15 03:18:58;;;;;;;6.13;4.85;;;;;;;;;;4896748;29;20500;-68
2022/05/15 03:21:31;;;;;;;7.78;5.00;;;;;;;;;;4896157;29;20408;-68
2022/05/15 03:24:01;;;;;;;7.57;5.00;;;;;;;;;;4928549;29;20091;-68
2022/05/15 03:26:29;;;;;;;9.18;5.50;;;;;;;;;;4899642;29;20047;-68
2022/05/15 03:28:55;;;;;;;7.50;5.18;;;;;;;;;;4900101;29;20031;-68
2022/05/15 03:31:22;;;;;;;6.20;5.30;;;;;;;;;;4900270;29;20154;-68
2022/05/15 03:33:48;;;;;;;8.50;5.38;;;;;;;;;;4899514;29;20025;-68
2022/05/15 03:36:16;;;;;;;8.18;5.20;;;;;;;;;;4899453;29;20043;-68
2022/05/15 03:38:43;;;;;;;8.05;5.65;;;;;;;;;;4899124;29;20478;-68
2022/05/15 03:41:09;;;;;;;7.53;5.30;;;;;;;;;;4899735;29;20028;-68
2022/05/15 03:43:36;;;;;;;8.52;5.93;;;;;;;;;;4899591;29;20020;-68
2022/05/15 03:46:04;;;;;;;9.25;5.18;;;;;;;;;;4899743;29;20042;-68
2022/05/15 03:48:30;;;;;;;9.98;6.07;;;;;;;;;;4899107;29;20020;-68
2022/05/15 03:50:56;;;;;;;7.70;5.63;;;;;;;;;;4899180;29;20028;-68
2022/05/15 03:53:24;;;;;;;8.77;5.57;;;;;;;;;;4898857;29;20465;-68
2022/05/15 03:55:51;;;;;;;8.52;5.60;;;;;;;;;;4899136;29;20044;-68
2022/05/15 03:58:17;;;;;;;8.00;5.88;;;;;;;;;;4899728;29;20023;-68
2022/05/15 04:00:43;;;;;;;11.90;5.45;;;;;;;;;;4899057;29;20032;-68
2022/05/15 04:03:10;;;;;;;10.77;5.43;;;;;;;;;;4898930;29;20017;-68
2022/05/15 04:05:36;;;;;;;8.00;5.72;;;;;;;;;;4898888;29;20022;-68
2022/05/15 04:08:03;;;;;;;6.35;5.45;;;;;;;;;;4898987;29;20040;-68
2022/05/15 04:10:30;;;;;;;8.10;5.40;;;;;;;;;;4899257;29;20492;-68
2022/05/15 04:12:56;;;;;;;7.68;5.78;;;;;;;;;;4898994;29;20099;-68
2022/05/15 04:15:22;;;;;;;7.07;5.55;;;;;;;;;;4898690;29;20040;-68
2022/05/15 04:17:50;;;;;;;9.68;5.43;;;;;;;;;;4898831;29;20066;-68
2022/05/15 04:20:18;;;;;;;11.70;5.72;;;;;;;;;;4898358;29;20394;-67
2022/05/15 04:22:46;;;;;;;8.32;5.50;;;;;;;;;;4898736;29;20056;-68
2022/05/15 04:25:12;;;;;;;6.30;5.50;;;;;;;;;;4899072;29;20035;-68
2022/05/15 04:27:39;;;;;;;11.13;5.30;;;;;;;;;;4898371;29;20402;-68
2022/05/15 04:30:06;;;;;;;8.27;5.50;;;;;;;;;;4898555;29;20386;-68
2022/05/15 04:32:32;;;;;;;8.00;5.80;;;;;;;;;;4898480;29;20031;-68
2022/05/15 04:34:58;;;;;;;11.45;6.15;;;;;;;;;;4897303;29;20028;-68
2022/05/15 04:37:25;;;;;;;9.85;5.93;;;;;;;;;;4899032;29;20520;-68
2022/05/15 04:39:51;;;;;;;6.70;5.65;;;;;;;;;;4898285;29;20017;-68
2022/05/15 04:42:17;;;;;;;6.25;5.07;;;;;;;;;;4898137;29;20063;-68
2022/05/15 04:44:45;;;;;;;8.02;5.85;;;;;;;;;;4898221;29;20031;-68
2022/05/15 04:47:12;;;;;;;8.38;5.32;;;;;;;;;;4898337;29;20037;-68
2022/05/15 04:49:39;;;;;;;9.23;5.65;;;;;;;;;;4898005;29;20379;-68
2022/05/15 04:52:05;;;;;;;6.35;5.50;;;;;;;;;;4898637;29;20040;-68
2022/05/15 04:54:32;;;;;;;9.98;5.50;;;;;;;;;;4898046;29;20455;-68
2022/05/15 04:56:58;;;;;;;7.03;5.55;;;;;;;;;;4897862;29;20037;-68
2022/05/15 04:59:24;;;;;;;8.25;5.60;;;;;;;;;;4897952;29;20025;-68
2022/05/15 05:01:51;;;;;;;8.93;5.80;;;;;;;;;;4898018;29;20036;-68
2022/05/15 05:04:17;;;;;;;8.50;5.82;;;;;;;;;;4898073;29;20029;-68
2022/05/15 05:06:43;;;;;;;7.50;5.55;;;;;;;;;;4897664;29;20036;-68
2022/05/15 05:09:11;;;;;;;8.30;5.82;;;;;;;;;;4897676;29;20021;-68
2022/05/15 05:11:37;;;;;;;10.32;5.68;;;;;;;;;;4897686;29;20043;-68
2022/05/15 05:14:04;;;;;;;6.85;5.72;;;;;;;;;;4897835;29;20020;-68
2022/05/15 05:16:33;;;;;;;11.52;5.80;;;;;;;;;;4897825;29;20040;-68
2022/05/15 05:18:59;;;;;;;9.68;5.75;;;;;;;;;;4897613;29;20024;-68
2022/05/15 05:21:26;;;;;;;9.48;5.90;;;;;;;;;;4897441;29;20429;-68
2022/05/15 05:23:52;;;;;;;9.90;5.90;;;;;;;;;;4897455;29;20528;-68
2022/05/15 05:26:18;;;;;;;11.52;6.10;;;;;;;;;;4927886;29;20043;-68
2022/05/15 05:28:46;;;;;;;7.68;5.93;;;;;;;;;;4897576;29;20025;-68
2022/05/15 05:31:12;;;;;;;7.50;5.78;;;;;;;;;;4897919;29;20051;-68
2022/05/15 05:33:39;;;;;;;6.82;5.50;;;;;;;;;;4897200;29;20024;-68
2022/05/15 05:36:06;;;;;;;8.40;5.75;;;;;;;;;;4897167;29;20036;-68
2022/05/15 05:38:33;;;;;;;7.50;5.15;;;;;;;;;;4897469;29;20100;-68
2022/05/15 05:40:59;;;;;;;6.30;5.25;;;;;;;;;;4897635;29;20051;-68
2022/05/15 05:43:25;;;;;;;8.93;5.53;;;;;;;;;;4897872;29;20024;-68
2022/05/15 05:45:52;;;;;;;8.77;5.60;;;;;;;;;;4896958;29;20101;-68
2022/05/15 05:48:19;;;;;;;10.30;5.75;;;;;;;;;;4896915;29;20034;-68
2022/05/15 05:50:45;;;;;;;8.43;5.68;;;;;;;;;;4897124;29;20419;-68
2022/05/15 05:53:11;;;;;;;9.20;6.05;;;;;;;;;;4897152;29;20528;-68
2022/05/15 05:55:38;;;;;;;6.50;5.60;;;;;;;;;;4897007;29;20050;-68
2022/05/15 05:58:04;;;;;;;9.52;6.20;;;;;;;;;;4897600;29;20041;-68
2022/05/15 06:00:32;;;;;;;7.78;5.80;;;;;;;;;;4896844;29;20021;-68
2022/05/15 06:05:44;;;;;;;7.53;5.47;;;;;;;;;;4896712;29;20024;-68
2022/05/15 06:08:11;;;;;;;6.40;4.88;;;;;;;;;;4897255;29;20028;-68
2022/05/15 06:10:37;;;;;;;7.20;5.38;;;;;;;;;;4897108;29;20036;-68
2022/05/15 06:13:04;;;;;;;7.10;5.00;;;;;;;;;;4897204;29;20029;-68
2022/05/15 06:15:30;;;;;;;7.65;5.05;;;;;;;;;;4896590;29;20446;-68
2022/05/15 06:18:02;;;;;;;7.43;4.85;;;;;;;;;;4896511;29;20101;-68
2022/05/15 06:20:28;;;;;;;8.55;4.70;;;;;;;;;;4896494;29;20038;-68
2022/05/15 06:22:55;;;;;;;6.90;4.20;;;;;;;;;;4896947;29;20044;-68
2022/05/15 06:25:21;;;;;;;8.57;4.38;;;;;;;;;;4897462;29;20029;-68
2022/05/15 06:27:48;;;;;;;8.05;4.40;;;;;;;;;;4896762;29;20490;-68
2022/05/15 06:30:15;;;;;;;6.75;4.00;;;;;;;;;;4896761;29;20028;-68
2022/05/15 06:32:41;;;;;;;6.90;4.80;;;;;;;;;;4896632;29;20027;-68
2022/05/15 06:35:08;;;;;;;11.48;5.95;;;;;;;;;;4896765;29;20282;-68
2022/05/15 06:37:34;;;;;;;9.38;5.30;;;;;;;;;;4896661;29;20028;-68
2022/05/15 06:40:01;;;;;;;9.48;5.25;;;;;;;;;;4897327;29;20025;-68
2022/05/15 06:42:28;;;;;;;9.35;4.78;;;;;;;;;;4927076;29;20025;-68
2022/05/15 06:44:55;;;;;;;6.90;4.70;;;;;;;;;;4896272;29;20434;-68
2022/05/15 06:47:23;;;;;;;7.68;4.25;;;;;;;;;;4896588;29;20035;-68
2022/05/15 06:49:49;;;;;;;6.35;3.83;;;;;;;;;;4896593;29;20055;-68
2022/05/15 06:52:16;;;;;;;4.95;3.90;;;;;;;;;;4897649;29;20020;-68
2022/05/15 06:54:42;;;;;;;6.32;4.03;;;;;;;;;;4896718;29;20083;-68
2022/05/15 07:00:07;;;;;;;7.88;4.13;;;;;;;;;;4899482;29;20033;-68
2022/05/15 07:02:34;;;;;;;4.93;4.00;;;;;;;;;;4899860;29;20039;-68
2022/05/15 07:05:00;;;;;;;6.28;4.05;;;;;;;;;;4900082;29;20493;-68
2022/05/15 07:07:26;;;;;;;6.28;3.42;;;;;;;;;;4900540;29;20083;-68
2022/05/15 07:09:53;;;;;;;6.47;3.75;;;;;;;;;;4900061;29;20032;-68
2022/05/15 07:12:19;;;;;;;6.78;3.35;;;;;;;;;;4900028;29;20039;-68
2022/05/15 07:14:45;;;;;;;6.20;2.97;;;;;;;;;;4899526;29;20538;-68
2022/05/15 07:17:12;;;;;;;8.30;3.17;;;;;;;;;;4899881;29;20039;-68
2022/05/15 07:19:38;;;;;;;8.73;2.90;;;;;;;;;;4900256;29;20032;-68
2022/05/15 07:22:06;;;;;;;8.50;2.80;;;;;;;;;;4900139;29;20056;-68
2022/05/15 07:24:32;;;;;;;8.65;2.72;;;;;;;;;;4899446;29;20025;-68
2022/05/15 07:26:58;;;;;;;10.70;2.65;;;;;;;;;;4899596;29;20032;-69
2022/05/15 07:29:25;;;;;;;6.88;2.80;;;;;;;;;;4899395;29;20021;-68
2022/05/15 07:31:53;;;;;;;7.60;2.80;;;;;;;;;;4899900;29;20482;-68
2022/05/15 07:34:20;;;;;;;7.28;3.05;;;;;;;;;;4900205;29;20021;-68
2022/05/15 07:36:50;;;;;;;7.10;2.30;;;;;;;;;;4899628;29;20043;-68
2022/05/15 07:39:17;;;;;;;6.43;2.75;;;;;;;;;;4899639;29;20020;-69
2022/05/15 07:41:44;;;;;;;6.43;2.65;;;;;;;;;;4899275;29;20047;-68
2022/05/15 07:44:10;;;;;;;7.82;3.30;;;;;;;;;;4899471;29;20017;-68
2022/05/15 07:46:36;;;;;;;6.70;2.80;;;;;;;;;;4899735;29;20035;-68
2022/05/15 07:49:03;;;;;;;6.43;2.50;;;;;;;;;;4900109;29;20036;-68
2022/05/15 07:51:31;;;;;;;6.80;2.75;;;;;;;;;;4899735;29;20043;-69
2022/05/15 07:53:57;;;;;;;11.80;2.70;;;;;;;;;;4899670;29;20019;-68
2022/05/15 07:56:24;;;;;;;7.25;2.60;;;;;;;;;;4899282;29;20454;-68
2022/05/15 07:58:50;;;;;;;9.13;3.00;;;;;;;;;;4897825;29;20040;-67
2022/05/15 08:01:16;;;;;;;8.00;2.85;;;;;;;;;;4899811;29;20040;-68
2022/05/15 08:03:43;;;;;;;10.13;2.60;;;;;;;;;;4898882;29;20405;-69
2022/05/15 08:08:56;;;;;;;11.75;2.80;;;;;;;;;;4898656;29;20021;-68
2022/05/15 08:11:26;;;;;;;8.48;2.80;;;;;;;;;;4898765;29;20059;-68
2022/05/15 08:13:53;;;;;;;8.20;3.17;;;;;;;;;;4898948;29;20067;-68
2022/05/15 08:16:19;;;;;;;8.55;3.28;;;;;;;;;;4899524;29;20045;-68
2022/05/15 08:24:16;;;;;;;13.73;3.03;;;;;;;;;;4898771;29;20031;-68
2022/05/15 08:26:44;;;;;;;9.00;3.00;;;;;;;;;;4898218;29;20478;-68
2022/05/15 08:29:10;;;;;;;8.32;3.00;;;;;;;;;;4898634;29;20039;-68
2022/05/15 08:31:38;;;;;;;7.35;3.10;;;;;;;;;;4898806;29;20039;-68
2022/05/15 08:34:04;;;;;;;8.25;3.20;;;;;;;;;;4899401;29;20033;-69
2022/05/15 08:36:31;;;;;;;11.27;3.55;;;;;;;;;;4898331;29;20501;-68
2022/05/15 08:38:57;;;;;;;12.60;3.45;;;;;;;;;;4898467;29;20029;-68
2022/05/15 08:41:29;;;;;;;8.48;3.17;;;;;;;;;;4898114;29;20498;-69
2022/05/15 08:43:56;;;;;;;7.93;2.60;;;;;;;;;;4883647;29;20021;-69
2022/05/15 08:46:31;;;;;;;10.48;3.47;;;;;;;;;;4898951;29;20405;-68
2022/05/15 08:49:09;;;;;;;8.75;3.08;;;;;;;;;;4898621;29;20043;-68
2022/05/15 08:51:36;;;;;;;9.73;3.50;;;;;;;;;;4898027;29;20021;-68
2022/05/15 08:54:04;;;;;;;9.48;3.55;;;;;;;;;;4898628;29;20043;-68
2022/05/15 08:56:34;;;;;;;7.18;3.00;;;;;;;;;;4897624;29;20043;-68
2022/05/15 08:59:04;;;;;;;8.65;3.13;;;;;;;;;;4898108;29;20029;-68
2022/05/15 09:01:33;;;;;;;9.05;3.30;;;;;;;;;;4898211;29;20150;-68
2022/05/15 09:03:59;;;;;;;9.07;3.40;;;;;;;;;;4897816;29;20032;-68
2022/05/15 09:06:29;;;;;;;10.50;2.97;;;;;;;;;;4898137;29;20367;-69
2022/05/15 09:09:19;;;;;;;9.27;3.27;;;;;;;;;;4898076;29;20032;-68
2022/05/15 09:11:57;;;;;;;12.38;3.40;;;;;;;;;;4897441;29;20043;-68
2022/05/15 09:14:23;;;;;;;10.45;3.13;;;;;;;;;;4897765;29;20389;-68
2022/05/15 09:16:55;;;;;;;8.60;3.22;;;;;;;;;;4897815;29;20033;-69
2022/05/15 09:19:21;;;;;;;8.52;3.00;;;;;;;;;;4898358;29;20434;-69
2022/05/15 09:21:48;;;;;;;7.65;2.88;;;;;;;;;;4897304;29;20060;-68
2022/05/15 09:24:24;;;;;;;9.85;2.80;;;;;;;;;;4912059;29;20051;-68
2022/05/15 09:26:50;;;;;;;7.95;2.90;;;;;;;;;;4897080;29;20080;-69
2022/05/15 09:29:18;;;;;;;9.15;3.60;;;;;;;;;;4897585;29;20023;-68
2022/05/15 09:31:44;;;;;;;7.40;3.08;;;;;;;;;;4897766;29;20033;-68
2022/05/15 09:34:29;;;;;;;7.90;3.03;;;;;;;;;;4897959;29;20021;-68
2022/05/15 09:39:46;;;;;;;9.77;3.00;;;;;;;;;;4897152;29;20029;-68
2022/05/15 09:45:17;;;;;;;10.52;3.35;;;;;;;;;;4897312;29;20482;-68
2022/05/15 09:47:44;;;;;;;9.73;3.10;;;;;;;;;;4927394;29;20042;-68
2022/05/15 09:50:30;;;;;;;8.57;3.05;;;;;;;;;;4897188;29;20493;-68
2022/05/15 09:52:58;;;;;;;12.75;3.53;;;;;;;;;;4882647;29;20027;-68
2022/05/15 09:55:27;;;;;;;14.98;2.88;;;;;;;;;;4893755;29;20039;-68
2022/05/15 09:57:56;;;;;;;13.68;3.30;;;;;;;;;;4897249;29;20036;-68
2022/05/15 10:00:24;;;;;;;11.75;3.33;;;;;;;;;;4897003;29;20438;-68
2022/05/15 10:02:54;;;;;;;10.90;2.92;;;;;;;;;;4896867;29;20814;-68
2022/05/15 10:05:23;;;;;;;8.65;2.95;;;;;;;;;;4896979;29;20028;-68
2022/05/15 10:07:59;;;;;;;11.13;2.90;;;;;;;;;;4897028;29;20490;-68
2022/05/15 10:10:34;;;;;;;13.60;2.72;;;;;;;;;;4893660;29;20032;-68
2022/05/15 10:13:05;;;;;;;7.95;2.13;;;;;;;;;;4897255;29;20371;-68
2022/05/15 10:15:35;;;;;;;11.05;2.35;;;;;;;;;;4896756;29;20047;-68
2022/05/15 10:18:03;;;;;;;10.83;2.70;;;;;;;;;;4896974;29;20028;-68
2022/05/15 10:20:31;;;;;;;11.93;2.80;;;;;;;;;;4896675;29;20521;-68
2022/05/15 10:22:57;;;;;;;8.52;2.60;;;;;;;;;;4881880;29;20036;-68
2022/05/15 10:25:41;;;;;;;12.52;2.20;;;;;;;;;;4893528;29;20054;-68
2022/05/15 10:28:10;;;;;;;12.57;2.65;;;;;;;;;;4895303;29;20035;-68
2022/05/15 10:30:42;;;;;;;12.57;2.70;;;;;;;;;;4896708;29;20027;-68
2022/05/15 10:33:15;;;;;;;11.35;2.58;;;;;;;;;;4898233;29;20031;-68
2022/05/15 10:36:02;;;;;;;11.82;3.20;;;;;;;;;;4900366;29;20446;-68
2022/05/15 10:38:34;;;;;;;10.20;3.10;;;;;;;;;;4900124;29;20553;-68
2022/05/15 10:41:14;;;;;;;11.68;2.75;;;;;;;;;;4886465;29;20042;-68
2022/05/15 10:43:46;;;;;;;8.32;2.85;;;;;;;;;;4900497;29;20063;-68
2022/05/15 10:46:12;;;;;;;11.35;2.80;;;;;;;;;;4899625;29;20047;-68
2022/05/15 10:48:57;;;;;;;8.57;2.63;;;;;;;;;;4900597;29;20381;-68
2022/05/15 10:51:36;;;;;;;11.10;2.83;;;;;;;;;;4900266;29;20389;-68
2022/05/15 10:57:22;;;;;;;12.25;2.97;;;;;;;;;;4893680;28;20446;-68
2022/05/15 10:59:58;;;;;;;8.27;2.50;;;;;;;;;;4893864;29;20073;-68
2022/05/15 11:02:30;;;;;;;10.35;2.92;;;;;;;;;;4894602;29;20401;-68
2022/05/15 11:05:03;;;;;;;10.15;3.08;;;;;;;;;;4883199;29;20118;-68
2022/05/15 11:07:47;;;;;;;12.68;3.10;;;;;;;;;;4894641;29;20044;-68
2022/05/15 11:10:46;;;;;;;9.50;3.10;;;;;;;;;;4897485;29;20039;-68
2022/05/15 11:13:30;;;;;;;12.18;3.53;;;;;;;;;;4824291;29;20042;-68
2022/05/15 11:16:11;;;;;;;8.57;2.40;;;;;;;;;;4823825;29;20058;-68
2022/05/15 11:18:56;;;;;;;13.18;3.13;;;;;;;;;;4823585;29;20050;-68
2022/05/15 11:21:34;;;;;;;13.73;2.90;;;;;;;;;;4822869;29;20451;-68
2022/05/15 11:24:04;;;;;;;14.73;3.00;;;;;;;;;;4816740;29;20042;-68
2022/05/15 11:26:34;;;;;;;11.40;2.67;;;;;;;;;;4813207;29;20039;-68
2022/05/15 11:29:04;;;;;;;10.45;3.30;;;;;;;;;;4809627;29;20048;-68
2022/05/15 11:31:32;;;;;;;10.05;2.83;;;;;;;;;;4824004;29;20034;-68
2022/05/15 11:34:02;;;;;;;14.00;3.17;;;;;;;;;;4835016;29;20042;-68
2022/05/15 11:36:33;;;;;;;11.43;3.22;;;;;;;;;;4841202;29;20524;-68
2022/05/15 11:39:01;;;;;;;8.65;2.90;;;;;;;;;;4841523;29;20040;-68
2022/05/15 11:41:36;;;;;;;10.52;3.00;;;;;;;;;;4841684;29;20500;-68
2022/05/15 11:44:31;;;;;;;11.15;3.25;;;;;;;;;;4841545;29;20072;-68
2022/05/15 11:46:59;;;;;;;12.25;3.30;;;;;;;;;;4826948;29;20430;-68
2022/05/15 11:49:34;;;;;;;9.05;3.00;;;;;;;;;;4882970;29;20051;-68
2022/05/15 11:52:06;;;;;;;11.25;2.47;;;;;;;;;;4899235;29;20029;-68
2022/05/15 11:54:42;;;;;;;9.05;2.97;;;;;;;;;;4899162;29;20076;-68
2022/05/15 11:57:10;;;;;;;9.90;2.60;;;;;;;;;;4899027;29;20040;-69
2022/05/15 11:59:37;;;;;;;8.23;2.70;;;;;;;;;;4899255;29;20017;-68
2022/05/15 12:02:12;;;;;;;10.02;2.70;;;;;;;;;;4899190;29;20025;-68
2022/05/15 12:04:38;;;;;;;11.80;3.10;;;;;;;;;;4898898;29;20047;-68
2022/05/15 12:07:05;;;;;;;12.77;3.50;;;;;;;;;;4899869;29;20043;-68
2022/05/15 12:09:31;;;;;;;7.68;2.55;;;;;;;;;;4898886;29;20031;-68
2022/05/15 12:12:17;;;;;;;10.05;2.80;;;;;;;;;;4898865;29;20028;-68
2022/05/15 12:15:03;;;;;;;10.70;2.95;;;;;;;;;;4898665;29;20028;-68
2022/05/15 12:17:31;;;;;;;10.70;2.55;;;;;;;;;;4898794;29;20383;-68
2022/05/15 12:20:17;;;;;;;17.83;3.03;;;;;;;;;;4898899;29;20021;-68
2022/05/15 12:22:54;;;;;;;15.20;2.95;;;;;;;;;;4897332;29;20417;-68
2022/05/15 12:25:25;;;;;;;10.07;2.63;;;;;;;;;;4899218;29;20054;-68
2022/05/15 12:30:55;;;;;;;10.73;3.20;;;;;;;;;;4898741;29;20379;-69
2022/05/15 12:33:24;;;;;;;14.13;2.60;;;;;;;;;;4898373;29;20028;-68
2022/05/15 12:35:51;;;;;;;10.77;2.92;;;;;;;;;;4898634;29;20031;-68
2022/05/15 12:38:23;;;;;;;10.25;3.10;;;;;;;;;;4898768;29;20020;-68
2022/05/15 12:40:53;;;;;;;14.07;3.20;;;;;;;;;;4898444;29;20020;-68
2022/05/15 12:43:21;;;;;;;10.93;2.70;;;;;;;;;;4899237;29;20028;-68
2022/05/15 12:45:48;;;;;;;9.88;2.60;;;;;;;;;;4898209;29;20037;-68
2022/05/15 12:48:14;;;;;;;13.73;3.38;;;;;;;;;;4897904;29;20029;-68
2022/05/15 12:51:09;;;;;;;9.55;2.90;;;;;;;;;;4898377;29;20028;-68
2022/05/15 12:53:39;;;;;;;14.40;3.13;;;;;;;;;;4897965;29;20039;-68
2022/05/15 12:56:16;;;;;;;12.25;2.83;;;;;;;;;;4897546;29;20129;-68
2022/05/15 12:58:48;;;;;;;11.60;2.47;;;;;;;;;;4898426;29;20039;-68
2022/05/15 13:01:15;;;;;;;10.43;2.45;;;;;;;;;;4898653;29;20028;-68
2022/05/15 13:03:43;;;;;;;13.40;2.92;;;;;;;;;;4897689;29;20029;-68
2022/05/15 13:06:09;;;;;;;25.23;3.30;;;;;;;;;;4897941;29;20516;-68
2022/05/15 13:08:49;;;;;;;12.27;3.33;;;;;;;;;;4897802;29;20036;-68
2022/05/15 13:11:27;;;;;;;12.18;3.08;;;;;;;;;;4898167;29;20027;-68
2022/05/15 13:13:55;;;;;;;7.32;2.58;;;;;;;;;;4897768;29;20029;-68
2022/05/15 13:16:23;;;;;;;10.80;2.55;;;;;;;;;;4898213;29;20509;-68
2022/05/15 13:18:53;;;;;;;9.13;2.72;;;;;;;;;;4897754;29;20071;-68
2022/05/15 13:21:36;;;;;;;11.93;2.85;;;;;;;;;;4897518;29;20390;-68
2022/05/15 13:24:05;;;;;;;10.68;2.97;;;;;;;;;;4897594;29;20072;-68
2022/05/15 13:26:37;;;;;;;12.85;3.03;;;;;;;;;;4897494;29;20029;-68
2022/05/15 13:29:05;;;;;;;11.15;3.00;;;;;;;;;;4912125;29;20024;-68
2022/05/15 13:31:32;;;;;;;10.25;3.33;;;;;;;;;;4897299;29;20486;-68
2022/05/15 13:33:59;;;;;;;11.18;2.67;;;;;;;;;;4897739;29;20021;-68
2022/05/15 13:36:25;;;;;;;11.93;2.70;;;;;;;;;;4897306;29;20029;-68
2022/05/15 13:44:29;;;;;;;12.57;2.38;;;;;;;;;;4897198;29;20035;-68
2022/05/15 13:46:59;;;;;;;18.23;2.67;;;;;;;;;;4896966;29;20032;-68
2022/05/15 13:49:36;;;;;;;10.83;2.63;;;;;;;;;;4897959;29;20363;-68
2022/05/15 13:52:20;;;;;;;9.40;2.75;;;;;;;;;;4897149;29;20036;-68
2022/05/15 13:54:47;;;;;;;15.90;2.53;;;;;;;;;;4897064;29;20034;-68
2022/05/15 13:57:13;;;;;;;9.80;2.50;;;;;;;;;;4896942;29;20048;-68
2022/05/15 13:59:59;;;;;;;13.52;3.40;;;;;;;;;;4897135;29;20096;-68
2022/05/15 14:02:29;;;;;;;14.77;3.05;;;;;;;;;;4896701;29;20025;-68
2022/05/15 14:04:56;;;;;;;;;;;;;;;;;;4897428;29;20091;-68
2022/05/15 14:07:31;;;;;;;10.50;2.85;;;;;;;;;;4897058;29;19911;-68
2022/05/15 14:10:02;;;;;;;11.48;2.70;;;;;;;;;;4897115;29;20028;-68
2022/05/15 14:12:37;;;;;;;15.30;2.90;;;;;;;;;;4896719;29;20017;-68
2022/05/15 14:15:07;;;;;;;7.75;2.50;;;;;;;;;;4896606;29;20029;-68
2022/05/15 14:17:47;;;;;;;10.60;2.58;;;;;;;;;;4927168;29;20048;-68
2022/05/15 14:20:15;;;;;;;9.93;2.50;;;;;;;;;;4897107;29;20024;-68
2022/05/15 14:22:41;;;;;;;12.60;2.88;;;;;;;;;;4896733;29;20054;-68
2022/05/15 14:25:09;;;;;;;9.18;2.83;;;;;;;;;;4897402;29;20043;-68
2022/05/15 14:27:36;;;;;;;9.38;2.60;;;;;;;;;;4896573;29;20021;-68
2022/05/15 14:30:03;;;;;;;6.35;2.42;;;;;;;;;;4896396;29;20067;-68
2022/05/15 14:32:31;;;;;;;8.13;2.30;;;;;;;;;;4897037;29;20024;-68
2022/05/15 14:34:58;;;;;;;8.13;1.95;;;;;;;;;;4927066;29;20035;-68
2022/05/15 14:37:26;;;;;;;7.68;1.80;;;;;;;;;;4897252;29;20050;-68
2022/05/15 14:39:52;;;;;;;10.25;2.17;;;;;;;;;;4896532;29;20025;-68
2022/05/15 14:42:18;;;;;;;15.32;2.47;;;;;;;;;;4896816;29;20040;-68
2022/05/15 14:44:45;;;;;;;10.02;2.35;;;;;;;;;;4895046;29;20024;-68
2022/05/15 14:47:14;;;;;;;7.50;1.95;;;;;;;;;;4896648;29;20028;-68
2022/05/15 14:49:41;;;;;;;10.48;2.75;;;;;;;;;;4896595;29;20036;-68
2022/05/15 14:52:08;;;;;;;10.27;2.92;;;;;;;;;;4896980;29;20036;-68
2022/05/15 14:54:34;;;;;;;11.30;2.72;;;;;;;;;;4896377;29;20013;-68
2022/05/15 14:57:02;;;;;;;8.45;3.05;;;;;;;;;;4896248;29;20068;-68
2022/05/15 14:59:28;;;;;;;19.50;3.47;;;;;;;;;;4896539;29;20017;-68
2022/05/15 15:01:55;;;;;;;7.57;2.03;;;;;;;;;;4896560;29;20029;-68
2022/05/15 15:04:21;;;;;;;14.68;2.35;;;;;;;;;;4896899;29;20031;-68
2022/05/15 15:06:48;;;;;;;9.52;2.25;;;;;;;;;;4896518;29;20043;-68
2022/05/15 15:09:14;;;;;;;7.82;2.28;;;;;;;;;;4896587;29;20021;-68
2022/05/15 15:11:46;;;;;;;10.85;2.10;;;;;;;;;;4896361;29;20028;-68
2022/05/15 15:14:12;;;;;;;10.15;1.98;;;;;;;;;;4896010;29;20502;-68
2022/05/15 15:16:41;;;;;;;7.38;2.67;;;;;;;;;;4896549;29;20041;-68
2022/05/15 15:19:07;;;;;;;10.23;2.42;;;;;;;;;;4898081;29;20520;-68
2022/05/15 15:21:34;;;;;;;11.77;2.50;;;;;;;;;;4899558;29;20059;-68
2022/05/15 15:24:01;;;;;;;8.98;2.13;;;;;;;;;;4914396;29;20035;-68